Terminal Aerodrome Forecast
Issued by NWS Charleston, WV

Current Version | Previous Version | Graphics & Text | Print | Product List | Glossary On
Versions: 1 2 3 4 5 6 7 8 9 10 11 12 13 14 15 16 17 18 19 20 21 22 23
000
FTUS41 KRLX 151738
TAFPKB
TAF
KPKB 151738Z 1518/1618 18009KT P6SM BKN200
     FM152000 21007KT P6SM BKN200
     FM152300 20007KT 4SM SHRA BR SCT025 BKN045
     FM160100 21007KT P6SM VCSH OVC025
     FM160300 23008KT P6SM OVC018
     FM160900 26009G16KT P6SM BKN035
     FM161600 28009G16KT P6SM BKN030=

USA.gov is the U.S. government's official web portal to all federal, state and local government web resources and services.